Aviation Digital Data Service (ADDS)

Output produced by METARs form (0213 UTC 16 January 2019)
found at http://www.aviationweather.gov/metar/data/
 
LETO 160200Z 03006KT CAVOK M02/M03 Q1019 NOSIG
TAF LETO 152300Z 1600/1624 VRB02KT CAVOK TX13/1616Z TNM04/1607Z
       
LEZG 160200Z 11008KT 7000 NSC 02/02 Q1019
TAF LEZG 152300Z 1600/1624 10005KT CAVOK TX12/1614Z TN01/1606Z 
     PROB40 
     TEMPO 1600/1610 VRB04KT 2000 BR BKN010 
     PROB30 
     TEMPO 1600/1608 0300 FG VV001 
     BECMG 1619/1621 27009KT
       
LERT 160200Z 08005KT 8000 FEW045 07/06 Q1021 NOSIG
TAF LERT 152300Z 1600/1609 10004KT 9999 SCT020
       
LELC 160200Z AUTO 26003KT 9000 OVC029/// 09/08 Q1020
TAF LELC 152300Z 1600/1624 31005KT 9999 SCT015 SCT025 TX17/1613Z TN04/1607Z 
     PROB40 
     TEMPO 1600/1608 BKN012 
     PROB40 
     TEMPO 1615/1619 20010KT
       
LEAB 160200Z 16004KT 8000 NSC 00/00 Q1020 NOSIG
TAF LEAB 152300Z 1600/1609 16005KT CAVOK 
     PROB40 
     TEMPO 1600/1609 2200 BCFG 
     PROB30 
     TEMPO 1602/1608 0800 FG
       
TAF LEBZ 152300Z 1600/1624 VRB03KT 9999 BKN025 TX13/1614Z TN00/1608Z 
     PROB40 
     TEMPO 1602/1610 3000 BR BKN003
       
LEMO 160200Z 12002KT 9000 BKN035 05/04 Q1021 NOSIG
TAF LEMO 152300Z 1600/1609 14004KT 9999 BKN030 
     PROB30 
     TEMPO 1604/1609 4000 BR BKN012
       
LESA 160200Z AUTO 00000KT 0400 R21/0800N FZFG VV/// M05/M05 Q1019
TAF LESA 152300Z 1600/1624 VRB04KT 0500 FG BKN001 TX06/1615Z TNM05/1607Z 
     TEMPO 1600/1610 0200 FZFG 
     PROB40 
     TEMPO 1600/1610 1400 BCFG 
     PROB30 
     TEMPO 1600/1611 6000 NSW NSC 
     BECMG 1611/1612 2500 BR BKN008 
     BECMG 1611/1613 CAVOK
       
GCLP 160200Z 35012KT 9999 FEW030 16/10 Q1022 NOSIG
TAF GCLP 152000Z 1521/1621 34012KT 9999 FEW025 TX21/1614Z TN16/1606Z 
     PROB30 
     TEMPO 1610/1618 04015KT
       
LIED 160155Z 03002KT CAVOK 03/01 Q1021 RMK SKC VIS MIN 9999 WIND THR35 /////KT WIND THR17 /////KT BLU
LIPR 160150Z AUTO 18004KT 9999 NCD 06/M03 Q1020
TAF LIPR 152300Z 1600/1609 24008KT CAVOK